sensor_id;sensor_type;location;lat;lon;timestamp;pressure;altitude;pressure_sealevel;temperature;humidity
32747;BME280;19118;50.860;13.662;2023-09-18T00:01:46;96731.44;;;20.25;100.00
32747;BME280;19118;50.860;13.662;2023-09-18T00:06:47;96729.84;;;20.19;100.00
32747;BME280;19118;50.860;13.662;2023-09-18T00:11:47;96723.34;;;20.04;100.00
32747;BME280;19118;50.860;13.662;2023-09-18T00:16:47;96723.78;;;19.76;100.00
32747;BME280;19118;50.860;13.662;2023-09-18T00:21:50;96716.19;;;19.58;100.00
32747;BME280;19118;50.860;13.662;2023-09-18T00:26:52;96716.13;;;19.47;100.00
32747;BME280;19118;50.860;13.662;2023-09-18T00:31:53;96718.44;;;19.29;100.00
32747;BME280;19118;50.860;13.662;2023-09-18T00:36:53;96715.97;;;19.22;100.00
32747;BME280;19118;50.860;13.662;2023-09-18T00:41:54;96716.19;;;19.10;100.00
32747;BME280;19118;50.860;13.662;2023-09-18T00:46:55;96707.06;;;19.06;100.00
32747;BME280;19118;50.860;13.662;2023-09-18T00:51:55;96701.28;;;18.87;100.00
32747;BME280;19118;50.860;13.662;2023-09-18T00:56:56;96692.03;;;18.68;100.00
32747;BME280;19118;50.860;13.662;2023-09-18T01:01:57;96684.94;;;18.57;100.00
32747;BME280;19118;50.860;13.662;2023-09-18T01:06:58;96677.44;;;18.54;100.00
32747;BME280;19118;50.860;13.662;2023-09-18T01:12:06;96667.19;;;18.46;100.00
32747;BME280;19118;50.860;13.662;2023-09-18T01:17:10;96660.97;;;18.35;100.00
32747;BME280;19118;50.860;13.662;2023-09-18T01:22:15;96651.88;;;18.09;100.00
32747;BME280;19118;50.860;13.662;2023-09-18T01:27:17;96643.72;;;17.94;100.00
32747;BME280;19118;50.860;13.662;2023-09-18T01:32:18;96640.38;;;17.82;100.00
32747;BME280;19118;50.860;13.662;2023-09-18T01:37:20;96632.16;;;17.66;100.00
32747;BME280;19118;50.860;13.662;2023-09-18T01:42:22;96631.25;;;17.56;100.00
32747;BME280;19118;50.860;13.662;2023-09-18T01:47:24;96621.50;;;17.44;100.00
32747;BME280;19118;50.860;13.662;2023-09-18T01:52:26;96617.91;;;17.34;100.00
32747;BME280;19118;50.860;13.662;2023-09-18T01:57:27;96609.81;;;17.29;100.00
32747;BME280;19118;50.860;13.662;2023-09-18T02:02:27;96624.13;;;17.17;100.00
32747;BME280;19118;50.860;13.662;2023-09-18T02:07:28;96621.38;;;17.12;100.00
32747;BME280;19118;50.860;13.662;2023-09-18T02:12:28;96613.81;;;17.04;100.00
32747;BME280;19118;50.860;13.662;2023-09-18T02:17:29;96593.31;;;16.88;100.00
32747;BME280;19118;50.860;13.662;2023-09-18T02:22:29;96593.47;;;16.81;100.00
32747;BME280;19118;50.860;13.662;2023-09-18T02:27:31;96589.91;;;16.76;100.00
32747;BME280;19118;50.860;13.662;2023-09-18T02:32:31;96594.63;;;16.69;100.00
32747;BME280;19118;50.860;13.662;2023-09-18T02:37:33;96581.00;;;16.53;100.00
32747;BME280;19118;50.860;13.662;2023-09-18T02:42:33;96578.22;;;16.43;100.00
32747;BME280;19118;50.860;13.662;2023-09-18T02:47:34;96572.19;;;16.31;100.00
32747;BME280;19118;50.860;13.662;2023-09-18T02:52:34;96573.53;;;16.17;100.00
32747;BME280;19118;50.860;13.662;2023-09-18T02:57:34;96575.41;;;16.16;100.00
32747;BME280;19118;50.860;13.662;2023-09-18T03:02:35;96572.81;;;16.05;100.00
32747;BME280;19118;50.860;13.662;2023-09-18T03:07:36;96569.28;;;15.99;100.00
32747;BME280;19118;50.860;13.662;2023-09-18T03:12:37;96574.75;;;15.92;100.00
32747;BME280;19118;50.860;13.662;2023-09-18T03:17:38;96562.63;;;15.85;100.00
32747;BME280;19118;50.860;13.662;2023-09-18T03:22:41;96555.19;;;15.70;100.00
32747;BME280;19118;50.860;13.662;2023-09-18T03:27:42;96549.34;;;15.73;100.00
32747;BME280;19118;50.860;13.662;2023-09-18T03:32:43;96543.38;;;15.66;100.00
32747;BME280;19118;50.860;13.662;2023-09-18T03:37:44;96544.50;;;15.70;100.00
32747;BME280;19118;50.860;13.662;2023-09-18T03:42:45;96537.88;;;15.72;100.00
32747;BME280;19118;50.860;13.662;2023-09-18T03:47:45;96538.22;;;15.76;100.00
32747;BME280;19118;50.860;13.662;2023-09-18T03:52:46;96543.22;;;15.72;100.00
32747;BME280;19118;50.860;13.662;2023-09-18T03:57:46;96537.88;;;15.72;100.00
32747;BME280;19118;50.860;13.662;2023-09-18T04:02:48;96531.09;;;15.82;100.00
32747;BME280;19118;50.860;13.662;2023-09-18T04:07:49;96529.75;;;15.79;100.00
32747;BME280;19118;50.860;13.662;2023-09-18T04:12:49;96530.31;;;15.81;100.00
32747;BME280;19118;50.860;13.662;2023-09-18T04:17:53;96532.72;;;15.83;100.00
32747;BME280;19118;50.860;13.662;2023-09-18T04:23:19;96527.06;;;15.79;100.00
32747;BME280;19118;50.860;13.662;2023-09-18T04:28:21;96515.84;;;15.77;100.00
32747;BME280;19118;50.860;13.662;2023-09-18T04:33:22;96513.19;;;15.77;100.00
32747;BME280;19118;50.860;13.662;2023-09-18T04:38:22;96519.00;;;15.91;100.00
32747;BME280;19118;50.860;13.662;2023-09-18T04:43:23;96516.91;;;16.10;100.00
32747;BME280;19118;50.860;13.662;2023-09-18T04:48:25;96517.22;;;16.13;100.00
32747;BME280;19118;50.860;13.662;2023-09-18T04:53:30;96505.38;;;16.26;100.00
32747;BME280;19118;50.860;13.662;2023-09-18T04:58:31;96507.31;;;16.30;100.00
32747;BME280;19118;50.860;13.662;2023-09-18T05:03:35;96496.59;;;16.47;100.00
32747;BME280;19118;50.860;13.662;2023-09-18T05:08:36;96489.09;;;16.66;100.00
32747;BME280;19118;50.860;13.662;2023-09-18T05:13:36;96486.63;;;16.81;100.00
32747;BME280;19118;50.860;13.662;2023-09-18T05:18:37;96468.78;;;17.09;100.00
32747;BME280;19118;50.860;13.662;2023-09-18T05:23:38;96445.09;;;17.50;100.00
32747;BME280;19118;50.860;13.662;2023-09-18T05:28:38;96440.78;;;17.75;100.00
32747;BME280;19118;50.860;13.662;2023-09-18T05:33:39;96429.00;;;18.14;100.00
32747;BME280;19118;50.860;13.662;2023-09-18T05:38:39;96434.81;;;18.53;100.00
32747;BME280;19118;50.860;13.662;2023-09-18T05:43:40;96425.00;;;18.74;100.00
32747;BME280;19118;50.860;13.662;2023-09-18T05:48:40;96408.44;;;18.82;100.00
32747;BME280;19118;50.860;13.662;2023-09-18T05:53:42;96414.38;;;19.19;100.00
32747;BME280;19118;50.860;13.662;2023-09-18T05:58:43;96401.25;;;19.43;100.00
32747;BME280;19118;50.860;13.662;2023-09-18T06:03:43;96405.31;;;19.71;100.00
32747;BME280;19118;50.860;13.662;2023-09-18T06:08:43;96391.06;;;19.86;100.00
32747;BME280;19118;50.860;13.662;2023-09-18T06:13:44;96387.78;;;20.10;100.00
32747;BME280;19118;50.860;13.662;2023-09-18T06:18:44;96386.41;;;20.22;100.00
32747;BME280;19118;50.860;13.662;2023-09-18T06:23:45;96380.19;;;20.42;100.00
32747;BME280;19118;50.860;13.662;2023-09-18T06:28:45;96380.72;;;20.44;100.00
32747;BME280;19118;50.860;13.662;2023-09-18T06:33:46;96370.16;;;20.63;100.00
32747;BME280;19118;50.860;13.662;2023-09-18T06:38:47;96355.81;;;20.78;100.00
32747;BME280;19118;50.860;13.662;2023-09-18T06:43:47;96355.38;;;21.05;100.00
32747;BME280;19118;50.860;13.662;2023-09-18T06:48:47;96345.50;;;21.34;100.00
32747;BME280;19118;50.860;13.662;2023-09-18T06:53:49;96331.00;;;21.59;100.00
32747;BME280;19118;50.860;13.662;2023-09-18T06:58:49;96338.56;;;21.86;100.00
32747;BME280;19118;50.860;13.662;2023-09-18T07:03:51;96322.44;;;22.05;100.00
32747;BME280;19118;50.860;13.662;2023-09-18T07:08:53;96312.00;;;22.46;100.00
32747;BME280;19118;50.860;13.662;2023-09-18T07:13:53;96305.22;;;22.49;100.00
32747;BME280;19118;50.860;13.662;2023-09-18T07:18:54;96303.66;;;22.85;100.00
32747;BME280;19118;50.860;13.662;2023-09-18T07:23:54;96300.28;;;22.93;100.00
32747;BME280;19118;50.860;13.662;2023-09-18T07:28:54;96305.75;;;23.53;100.00
32747;BME280;19118;50.860;13.662;2023-09-18T07:33:55;96291.31;;;23.77;100.00
32747;BME280;19118;50.860;13.662;2023-09-18T07:38:55;96282.31;;;24.09;95.42
32747;BME280;19118;50.860;13.662;2023-09-18T07:43:56;96277.91;;;24.77;86.51
32747;BME280;19118;50.860;13.662;2023-09-18T07:48:58;96270.25;;;25.37;72.43
32747;BME280;19118;50.860;13.662;2023-09-18T07:53:59;96279.25;;;25.55;66.53
32747;BME280;19118;50.860;13.662;2023-09-18T07:59:00;96250.31;;;25.95;63.41
32747;BME280;19118;50.860;13.662;2023-09-18T08:04:00;96250.25;;;26.61;59.80
32747;BME280;19118;50.860;13.662;2023-09-18T08:09:01;96249.78;;;26.67;57.75
32747;BME280;19118;50.860;13.662;2023-09-18T08:14:01;96253.31;;;26.77;55.53
32747;BME280;19118;50.860;13.662;2023-09-18T08:19:01;96251.06;;;27.05;52.94
32747;BME280;19118;50.860;13.662;2023-09-18T08:24:02;96261.06;;;27.47;53.20
32747;BME280;19118;50.860;13.662;2023-09-18T08:29:02;96269.38;;;27.42;53.98
32747;BME280;19118;50.860;13.662;2023-09-18T08:34:03;96268.13;;;27.31;54.68
32747;BME280;19118;50.860;13.662;2023-09-18T08:39:03;96271.97;;;27.30;54.15
32747;BME280;19118;50.860;13.662;2023-09-18T08:44:07;96263.38;;;27.11;55.48
32747;BME280;19118;50.860;13.662;2023-09-18T08:49:09;96264.28;;;27.32;56.00
32747;BME280;19118;50.860;13.662;2023-09-18T08:54:11;96257.88;;;27.92;53.52
32747;BME280;19118;50.860;13.662;2023-09-18T08:59:12;96245.97;;;28.77;51.90
32747;BME280;19118;50.860;13.662;2023-09-18T09:04:14;96219.31;;;28.70;49.14
32747;BME280;19118;50.860;13.662;2023-09-18T09:09:15;96220.09;;;29.12;48.37
32747;BME280;19118;50.860;13.662;2023-09-18T09:14:15;96205.28;;;29.34;47.70
32747;BME280;19118;50.860;13.662;2023-09-18T09:19:33;96204.69;;;29.41;47.53
32747;BME280;19118;50.860;13.662;2023-09-18T09:24:37;96218.38;;;29.90;47.35
32747;BME280;19118;50.860;13.662;2023-09-18T09:29:38;96199.06;;;30.31;44.93
32747;BME280;19118;50.860;13.662;2023-09-18T09:34:41;96201.56;;;30.36;45.35
32747;BME280;19118;50.860;13.662;2023-09-18T09:39:51;96188.06;;;30.56;43.91
32747;BME280;19118;50.860;13.662;2023-09-18T09:45:01;96205.81;;;31.18;45.20
32747;BME280;19118;50.860;13.662;2023-09-18T09:50:11;96198.44;;;30.90;42.23
32747;BME280;19118;50.860;13.662;2023-09-18T09:55:33;96207.06;;;30.64;42.72
32747;BME280;19118;50.860;13.662;2023-09-18T10:00:45;96219.19;;;31.07;43.02
32747;BME280;19118;50.860;13.662;2023-09-18T10:05:50;96279.50;;;30.74;44.83
32747;BME280;19118;50.860;13.662;2023-09-18T10:10:55;96269.41;;;30.50;46.84
32747;BME280;19118;50.860;13.662;2023-09-18T10:15:59;96268.16;;;29.99;47.67
32747;BME280;19118;50.860;13.662;2023-09-18T10:21:11;96273.94;;;29.85;48.29
32747;BME280;19118;50.860;13.662;2023-09-18T10:26:17;96313.38;;;29.88;49.99
32747;BME280;19118;50.860;13.662;2023-09-18T10:31:26;96304.34;;;29.09;52.68
32747;BME280;19118;50.860;13.662;2023-09-18T10:36:27;96298.47;;;29.73;50.73
32747;BME280;19118;50.860;13.662;2023-09-18T10:41:29;96288.63;;;30.41;48.95
32747;BME280;19118;50.860;13.662;2023-09-18T10:46:30;96288.41;;;30.22;49.96
32747;BME280;19118;50.860;13.662;2023-09-18T10:51:31;96288.13;;;29.78;51.47
32747;BME280;19118;50.860;13.662;2023-09-18T10:56:34;96283.09;;;29.56;51.16
32747;BME280;19118;50.860;13.662;2023-09-18T11:01:35;96284.38;;;29.71;51.54
32747;BME280;19118;50.860;13.662;2023-09-18T11:16:59;96268.81;;;29.59;53.18
32747;BME280;19118;50.860;13.662;2023-09-18T11:22:08;96275.69;;;30.02;52.86
32747;BME280;19118;50.860;13.662;2023-09-18T11:27:10;96284.88;;;30.46;48.98
32747;BME280;19118;50.860;13.662;2023-09-18T11:32:10;96288.31;;;30.95;48.36
32747;BME280;19118;50.860;13.662;2023-09-18T11:37:19;96277.88;;;30.85;48.08
32747;BME280;19118;50.860;13.662;2023-09-18T11:42:21;96298.53;;;30.22;51.10
32747;BME280;19118;50.860;13.662;2023-09-18T11:47:25;96285.03;;;30.13;51.15
32747;BME280;19118;50.860;13.662;2023-09-18T11:52:29;96270.56;;;30.37;50.63
32747;BME280;19118;50.860;13.662;2023-09-18T11:57:35;96275.88;;;29.72;52.22
32747;BME280;19118;50.860;13.662;2023-09-18T12:02:36;96269.63;;;29.72;53.00
32747;BME280;19118;50.860;13.662;2023-09-18T12:07:39;96257.94;;;29.96;50.97
32747;BME280;19118;50.860;13.662;2023-09-18T12:12:44;96257.97;;;30.20;51.45
32747;BME280;19118;50.860;13.662;2023-09-18T12:17:44;96266.06;;;30.81;50.02
32747;BME280;19118;50.860;13.662;2023-09-18T12:22:49;96257.97;;;31.13;49.19
32747;BME280;19118;50.860;13.662;2023-09-18T12:27:54;96271.53;;;30.57;49.48
32747;BME280;19118;50.860;13.662;2023-09-18T12:32:57;96266.34;;;30.52;50.15
32747;BME280;19118;50.860;13.662;2023-09-18T12:38:00;96279.41;;;29.97;49.89
32747;BME280;19118;50.860;13.662;2023-09-18T12:43:00;96280.47;;;30.17;50.07
32747;BME280;19118;50.860;13.662;2023-09-18T12:48:01;96287.28;;;30.48;49.56
32747;BME280;19118;50.860;13.662;2023-09-18T12:53:22;96288.41;;;30.10;48.73
32747;BME280;19118;50.860;13.662;2023-09-18T12:58:23;96286.72;;;30.18;49.74
32747;BME280;19118;50.860;13.662;2023-09-18T13:03:24;96281.16;;;30.14;51.15
32747;BME280;19118;50.860;13.662;2023-09-18T13:08:24;96274.53;;;30.64;49.68
32747;BME280;19118;50.860;13.662;2023-09-18T13:13:25;96274.28;;;30.69;49.69
32747;BME280;19118;50.860;13.662;2023-09-18T13:18:26;96264.44;;;29.91;51.58
32747;BME280;19118;50.860;13.662;2023-09-18T13:23:28;96272.13;;;29.44;52.76
32747;BME280;19118;50.860;13.662;2023-09-18T13:28:30;96273.44;;;30.16;52.23
32747;BME280;19118;50.860;13.662;2023-09-18T13:33:37;96258.22;;;30.80;50.88
32747;BME280;19118;50.860;13.662;2023-09-18T13:38:38;96268.00;;;30.81;49.90
32747;BME280;19118;50.860;13.662;2023-09-18T13:43:38;96270.50;;;30.86;50.59
32747;BME280;19118;50.860;13.662;2023-09-18T13:48:39;96267.94;;;30.40;52.04
32747;BME280;19118;50.860;13.662;2023-09-18T13:53:39;96275.81;;;30.18;54.70
32747;BME280;19118;50.860;13.662;2023-09-18T13:58:41;96283.06;;;28.90;56.53
32747;BME280;19118;50.860;13.662;2023-09-18T14:03:41;96264.84;;;28.82;54.56
32747;BME280;19118;50.860;13.662;2023-09-18T14:08:43;96269.34;;;29.19;53.96
32747;BME280;19118;50.860;13.662;2023-09-18T14:13:43;96276.66;;;29.73;52.04
32747;BME280;19118;50.860;13.662;2023-09-18T14:18:43;96268.00;;;29.25;50.47
32747;BME280;19118;50.860;13.662;2023-09-18T14:23:44;96268.00;;;29.25;51.16
32747;BME280;19118;50.860;13.662;2023-09-18T14:28:44;96275.53;;;29.41;50.97
32747;BME280;19118;50.860;13.662;2023-09-18T14:33:46;96276.41;;;29.33;50.90
32747;BME280;19118;50.860;13.662;2023-09-18T14:38:47;96278.34;;;29.65;50.36
32747;BME280;19118;50.860;13.662;2023-09-18T14:43:47;96287.03;;;29.46;51.73
32747;BME280;19118;50.860;13.662;2023-09-18T14:48:48;96286.84;;;29.31;53.40
32747;BME280;19118;50.860;13.662;2023-09-18T14:53:48;96284.72;;;29.69;53.07
32747;BME280;19118;50.860;13.662;2023-09-18T14:58:49;96286.66;;;29.69;53.62
32747;BME280;19118;50.860;13.662;2023-09-18T15:03:50;96298.34;;;29.03;55.50
32747;BME280;19118;50.860;13.662;2023-09-18T15:08:51;96304.31;;;28.96;58.21
32747;BME280;19118;50.860;13.662;2023-09-18T15:13:51;96323.56;;;27.94;63.96
32747;BME280;19118;50.860;13.662;2023-09-18T15:18:51;96317.56;;;27.80;63.50
32747;BME280;19118;50.860;13.662;2023-09-18T15:23:52;96323.72;;;27.42;64.04
32747;BME280;19118;50.860;13.662;2023-09-18T15:28:52;96327.44;;;26.37;66.12
32747;BME280;19118;50.860;13.662;2023-09-18T15:33:52;96328.50;;;26.19;66.28
32747;BME280;19118;50.860;13.662;2023-09-18T15:38:54;96329.53;;;26.01;67.94
32747;BME280;19118;50.860;13.662;2023-09-18T15:43:56;96327.50;;;25.75;68.04
32747;BME280;19118;50.860;13.662;2023-09-18T15:48:57;96325.19;;;25.60;69.19
32747;BME280;19118;50.860;13.662;2023-09-18T15:53:57;96346.47;;;25.31;70.20
32747;BME280;19118;50.860;13.662;2023-09-18T15:58:57;96346.09;;;25.46;72.52
32747;BME280;19118;50.860;13.662;2023-09-18T16:03:58;96358.50;;;25.02;73.25
32747;BME280;19118;50.860;13.662;2023-09-18T16:08:59;96343.19;;;24.48;78.17
32747;BME280;19118;50.860;13.662;2023-09-18T16:14:00;96341.19;;;24.26;83.05
32747;BME280;19118;50.860;13.662;2023-09-18T16:19:00;96353.47;;;24.04;87.53
32747;BME280;19118;50.860;13.662;2023-09-18T16:24:01;96348.75;;;23.83;100.00
32747;BME280;19118;50.860;13.662;2023-09-18T16:29:06;96359.72;;;23.59;100.00
32747;BME280;19118;50.860;13.662;2023-09-18T16:34:07;96341.69;;;23.03;100.00
32747;BME280;19118;50.860;13.662;2023-09-18T16:39:07;96343.63;;;22.78;100.00
32747;BME280;19118;50.860;13.662;2023-09-18T16:44:08;96344.88;;;22.67;100.00
32747;BME280;19118;50.860;13.662;2023-09-18T16:49:08;96343.97;;;22.53;100.00
32747;BME280;19118;50.860;13.662;2023-09-18T16:54:12;96339.25;;;22.45;100.00
32747;BME280;19118;50.860;13.662;2023-09-18T16:59:13;96340.47;;;22.33;100.00
32747;BME280;19118;50.860;13.662;2023-09-18T17:04:13;96349.88;;;22.12;100.00
32747;BME280;19118;50.860;13.662;2023-09-18T17:09:14;96343.47;;;22.03;100.00
32747;BME280;19118;50.860;13.662;2023-09-18T17:14:15;96338.09;;;21.79;100.00
32747;BME280;19118;50.860;13.662;2023-09-18T17:19:16;96341.09;;;21.72;100.00
32747;BME280;19118;50.860;13.662;2023-09-18T17:24:18;96339.13;;;21.54;100.00
32747;BME280;19118;50.860;13.662;2023-09-18T17:29:18;96340.91;;;21.35;100.00
32747;BME280;19118;50.860;13.662;2023-09-18T17:34:19;96347.16;;;21.25;100.00
32747;BME280;19118;50.860;13.662;2023-09-18T17:39:19;96355.19;;;20.96;100.00
32747;BME280;19118;50.860;13.662;2023-09-18T17:44:19;96343.13;;;20.88;100.00
32747;BME280;19118;50.860;13.662;2023-09-18T17:49:20;96344.22;;;20.87;100.00
32747;BME280;19118;50.860;13.662;2023-09-18T17:54:22;96334.03;;;20.79;100.00
32747;BME280;19118;50.860;13.662;2023-09-18T17:59:22;96340.31;;;20.59;100.00
32747;BME280;19118;50.860;13.662;2023-09-18T18:04:23;96333.16;;;20.45;100.00
32747;BME280;19118;50.860;13.662;2023-09-18T18:09:23;96337.66;;;20.59;100.00
32747;BME280;19118;50.860;13.662;2023-09-18T18:14:25;96344.91;;;20.59;100.00
32747;BME280;19118;50.860;13.662;2023-09-18T18:19:26;96329.84;;;20.63;100.00
32747;BME280;19118;50.860;13.662;2023-09-18T18:24:26;96337.63;;;20.64;100.00
32747;BME280;19118;50.860;13.662;2023-09-18T18:29:27;96325.63;;;20.47;100.00
32747;BME280;19118;50.860;13.662;2023-09-18T18:34:28;96332.09;;;20.35;100.00
32747;BME280;19118;50.860;13.662;2023-09-18T18:39:28;96338.59;;;20.24;100.00
32747;BME280;19118;50.860;13.662;2023-09-18T18:44:29;96345.31;;;20.22;100.00
32747;BME280;19118;50.860;13.662;2023-09-18T18:49:29;96351.25;;;20.19;100.00
32747;BME280;19118;50.860;13.662;2023-09-18T18:54:31;96353.41;;;20.17;100.00
32747;BME280;19118;50.860;13.662;2023-09-18T18:59:32;96364.72;;;19.98;100.00
32747;BME280;19118;50.860;13.662;2023-09-18T19:04:32;96365.31;;;19.70;100.00
32747;BME280;19118;50.860;13.662;2023-09-18T19:09:34;96341.44;;;19.68;100.00
32747;BME280;19118;50.860;13.662;2023-09-18T19:14:35;96315.44;;;19.64;100.00
32747;BME280;19118;50.860;13.662;2023-09-18T19:19:35;96300.41;;;19.53;100.00
32747;BME280;19118;50.860;13.662;2023-09-18T19:24:35;96293.44;;;19.67;100.00
32747;BME280;19118;50.860;13.662;2023-09-18T19:29:36;96291.56;;;19.67;100.00
32747;BME280;19118;50.860;13.662;2023-09-18T19:34:36;96315.97;;;19.71;100.00
32747;BME280;19118;50.860;13.662;2023-09-18T19:39:37;96313.00;;;19.77;100.00
32747;BME280;19118;50.860;13.662;2023-09-18T19:44:39;96302.75;;;19.90;100.00
32747;BME280;19118;50.860;13.662;2023-09-18T19:49:39;96302.50;;;19.86;100.00
32747;BME280;19118;50.860;13.662;2023-09-18T19:54:40;96297.91;;;19.92;100.00
32747;BME280;19118;50.860;13.662;2023-09-18T19:59:40;96295.50;;;19.90;100.00
32747;BME280;19118;50.860;13.662;2023-09-18T20:04:41;96293.94;;;19.79;100.00
32747;BME280;19118;50.860;13.662;2023-09-18T20:09:41;96284.31;;;19.53;100.00
32747;BME280;19118;50.860;13.662;2023-09-18T20:14:42;96270.97;;;19.27;100.00
32747;BME280;19118;50.860;13.662;2023-09-18T20:19:43;96275.78;;;18.89;100.00
32747;BME280;19118;50.860;13.662;2023-09-18T20:24:45;96270.72;;;18.73;100.00
32747;BME280;19118;50.860;13.662;2023-09-18T20:29:46;96261.81;;;18.47;100.00
32747;BME280;19118;50.860;13.662;2023-09-18T20:34:46;96265.56;;;18.36;100.00
32747;BME280;19118;50.860;13.662;2023-09-18T20:39:47;96261.22;;;18.14;100.00
32747;BME280;19118;50.860;13.662;2023-09-18T20:44:47;96254.25;;;18.13;100.00
32747;BME280;19118;50.860;13.662;2023-09-18T20:49:48;96260.69;;;18.12;100.00
32747;BME280;19118;50.860;13.662;2023-09-18T20:54:50;96259.63;;;18.33;100.00
32747;BME280;19118;50.860;13.662;2023-09-18T20:59:50;96249.75;;;18.24;100.00
32747;BME280;19118;50.860;13.662;2023-09-18T21:04:51;96249.47;;;18.25;100.00
32747;BME280;19118;50.860;13.662;2023-09-18T21:09:53;96254.00;;;18.15;100.00
32747;BME280;19118;50.860;13.662;2023-09-18T21:14:54;96254.25;;;18.18;100.00
32747;BME280;19118;50.860;13.662;2023-09-18T21:19:54;96246.75;;;18.20;100.00
32747;BME280;19118;50.860;13.662;2023-09-18T21:24:55;96248.41;;;18.26;100.00
32747;BME280;19118;50.860;13.662;2023-09-18T21:29:57;96255.09;;;18.24;100.00
32747;BME280;19118;50.860;13.662;2023-09-18T21:34:57;96253.69;;;18.11;100.00
32747;BME280;19118;50.860;13.662;2023-09-18T21:39:57;96245.13;;;18.09;100.00
32747;BME280;19118;50.860;13.662;2023-09-18T21:44:58;96241.88;;;17.97;100.00
32747;BME280;19118;50.860;13.662;2023-09-18T21:49:59;96226.91;;;17.91;100.00
32747;BME280;19118;50.860;13.662;2023-09-18T21:54:59;96231.94;;;17.87;100.00
32747;BME280;19118;50.860;13.662;2023-09-18T22:00:00;96241.31;;;17.85;100.00
32747;BME280;19118;50.860;13.662;2023-09-18T22:05:01;96238.66;;;17.90;100.00
32747;BME280;19118;50.860;13.662;2023-09-18T22:10:01;96231.63;;;17.73;100.00
32747;BME280;19118;50.860;13.662;2023-09-18T22:15:02;96231.09;;;17.71;100.00
32747;BME280;19118;50.860;13.662;2023-09-18T22:20:03;96237.84;;;17.37;100.00
32747;BME280;19118;50.860;13.662;2023-09-18T22:25:03;96252.28;;;17.36;100.00
32747;BME280;19118;50.860;13.662;2023-09-18T22:30:06;96245.41;;;17.55;100.00
32747;BME280;19118;50.860;13.662;2023-09-18T22:35:07;96247.00;;;17.46;100.00
32747;BME280;19118;50.860;13.662;2023-09-18T22:56:28;96247.06;;;17.66;100.00
32747;BME280;19118;50.860;13.662;2023-09-18T23:01:29;96244.88;;;17.53;100.00
32747;BME280;19118;50.860;13.662;2023-09-18T23:06:30;96247.81;;;17.46;100.00
32747;BME280;19118;50.860;13.662;2023-09-18T23:11:33;96247.06;;;17.56;100.00
32747;BME280;19118;50.860;13.662;2023-09-18T23:16:35;96237.16;;;17.57;100.00
32747;BME280;19118;50.860;13.662;2023-09-18T23:21:35;96239.78;;;17.52;100.00
32747;BME280;19118;50.860;13.662;2023-09-18T23:26:36;96227.28;;;17.62;100.00
32747;BME280;19118;50.860;13.662;2023-09-18T23:31:39;96232.63;;;17.57;100.00
32747;BME280;19118;50.860;13.662;2023-09-18T23:36:41;96228.34;;;17.61;100.00
32747;BME280;19118;50.860;13.662;2023-09-18T23:41:42;96231.88;;;17.67;100.00
32747;BME280;19118;50.860;13.662;2023-09-18T23:46:44;96236.34;;;17.56;100.00
32747;BME280;19118;50.860;13.662;2023-09-18T23:51:48;96231.81;;;17.62;100.00
32747;BME280;19118;50.860;13.662;2023-09-18T23:56:48;96233.16;;;17.64;100.00
